RA67199 UWKD-UWKD
Flight info
| Callsign | RA67199 |
|---|---|
| Flight time | N/A |
| Altitude | 1500 |
| Route | DCT GUBOM DCT RD DCT GUBOM DCT |
| Aircraft | C172/L-S/C |
Departure
| Time | 2026-05-07 17:32 |
|---|---|
| Airport | Kazan International Airport (UWKD) |
Arrival
| Time | N/A |
|---|---|
| Airport | Kazan International Airport (UWKD) |
| Time | Latitude | Longitude | Altitude | Speed | Heading |
|---|---|---|---|---|---|
| 2026-05-07 16:47 | 55.60628 | 49.29571 | 402 ft | 0 kts | 35° |
| 2026-05-07 17:15 | 55.60627 | 49.29571 | 402 ft | 0 kts | 35° |
| 2026-05-07 17:16 | 55.60627 | 49.29570 | 402 ft | 0 kts | 35° |
| 2026-05-07 17:18 | 55.60629 | 49.29572 | 402 ft | 0 kts | 34° |
| 2026-05-07 17:18 | 55.60641 | 49.29585 | 402 ft | 3 kts | 19° |
| 2026-05-07 17:18 | 55.60655 | 49.29581 | 402 ft | 2 kts | 326° |
| 2026-05-07 17:18 | 55.60660 | 49.29572 | 402 ft | 2 kts | 308° |
| 2026-05-07 17:19 | 55.60667 | 49.29554 | 402 ft | 2 kts | 300° |
| 2026-05-07 17:19 | 55.60675 | 49.29532 | 402 ft | 2 kts | 306° |
| 2026-05-07 17:19 | 55.60684 | 49.29511 | 402 ft | 0 kts | 303° |
| 2026-05-07 17:19 | 55.60685 | 49.29508 | 402 ft | 1 kts | 302° |
| 2026-05-07 17:20 | 55.60687 | 49.29496 | 402 ft | 4 kts | 276° |
| 2026-05-07 17:20 | 55.60694 | 49.29428 | 402 ft | 6 kts | 298° |
| 2026-05-07 17:20 | 55.60717 | 49.29385 | 402 ft | 4 kts | 323° |
| 2026-05-07 17:20 | 55.60737 | 49.29355 | 402 ft | 5 kts | 302° |
| 2026-05-07 17:21 | 55.60709 | 49.29300 | 402 ft | 9 kts | 214° |
| 2026-05-07 17:21 | 55.60651 | 49.29230 | 402 ft | 10 kts | 214° |
| 2026-05-07 17:21 | 55.60601 | 49.29162 | 402 ft | 8 kts | 233° |
| 2026-05-07 17:21 | 55.60576 | 49.29070 | 402 ft | 9 kts | 261° |
| 2026-05-07 17:22 | 55.60579 | 49.28963 | 402 ft | 9 kts | 274° |
| 2026-05-07 17:22 | 55.60585 | 49.28815 | 402 ft | 14 kts | 274° |
| 2026-05-07 17:22 | 55.60595 | 49.28637 | 401 ft | 15 kts | 282° |
| 2026-05-07 17:22 | 55.60641 | 49.28489 | 402 ft | 13 kts | 301° |
| 2026-05-07 17:23 | 55.60685 | 49.28375 | 402 ft | 10 kts | 304° |
| 2026-05-07 17:23 | 55.60720 | 49.28285 | 402 ft | 8 kts | 304° |
| 2026-05-07 17:23 | 55.60747 | 49.28216 | 402 ft | 7 kts | 305° |
| 2026-05-07 17:23 | 55.60784 | 49.28120 | 402 ft | 12 kts | 305° |
| 2026-05-07 17:24 | 55.60838 | 49.27981 | 402 ft | 15 kts | 306° |
| 2026-05-07 17:24 | 55.60901 | 49.27818 | 402 ft | 18 kts | 305° |
| 2026-05-07 17:24 | 55.60982 | 49.27610 | 402 ft | 21 kts | 304° |
| 2026-05-07 17:24 | 55.61059 | 49.27412 | 402 ft | 18 kts | 304° |
| 2026-05-07 17:25 | 55.61122 | 49.27249 | 402 ft | 14 kts | 304° |
| 2026-05-07 17:25 | 55.61173 | 49.27118 | 402 ft | 10 kts | 304° |
| 2026-05-07 17:25 | 55.61207 | 49.27029 | 402 ft | 8 kts | 305° |
| 2026-05-07 17:25 | 55.61218 | 49.26937 | 402 ft | 7 kts | 244° |
| 2026-05-07 17:26 | 55.61186 | 49.26886 | 402 ft | 6 kts | 214° |
| 2026-05-07 17:26 | 55.61164 | 49.26860 | 402 ft | 0 kts | 216° |
| 2026-05-07 17:28 | 55.61164 | 49.26859 | 402 ft | 1 kts | 215° |
| 2026-05-07 17:29 | 55.61162 | 49.26857 | 402 ft | 0 kts | 215° |
| 2026-05-07 17:29 | 55.61159 | 49.26853 | 402 ft | 3 kts | 213° |
| 2026-05-07 17:29 | 55.61124 | 49.26812 | 403 ft | 8 kts | 216° |
| 2026-05-07 17:29 | 55.61069 | 49.26754 | 403 ft | 9 kts | 177° |
| 2026-05-07 17:30 | 55.61040 | 49.26807 | 402 ft | 0 kts | 124° |
| 2026-05-07 17:31 | 55.61030 | 49.26832 | 402 ft | 11 kts | 124° |
| 2026-05-07 17:31 | 55.60895 | 49.27181 | 400 ft | 56 kts | 124° |
| 2026-05-07 17:31 | 55.60630 | 49.27869 | 449 ft | 75 kts | 124° |
| 2026-05-07 17:31 | 55.60301 | 49.28574 | 634 ft | 74 kts | 147° |
| 2026-05-07 17:32 | 55.59788 | 49.28646 | 810 ft | 76 kts | 182° |
| 2026-05-07 17:32 | 55.59255 | 49.28557 | 960 ft | 80 kts | 181° |
| 2026-05-07 17:32 | 55.58674 | 49.28600 | 1093 ft | 84 kts | 168° |
| 2026-05-07 17:32 | 55.58300 | 49.28758 | 1206 ft | 84 kts | 166° |
| 2026-05-07 17:33 | 55.57550 | 49.29122 | 1413 ft | 84 kts | 161° |
| 2026-05-07 17:33 | 55.56976 | 49.29353 | 1632 ft | 82 kts | 164° |
| 2026-05-07 17:33 | 55.56369 | 49.29632 | 1610 ft | 95 kts | 159° |
| 2026-05-07 17:33 | 55.55734 | 49.29978 | 1521 ft | 101 kts | 162° |
| 2026-05-07 17:34 | 55.55046 | 49.30292 | 1496 ft | 99 kts | 163° |
| 2026-05-07 17:34 | 55.54354 | 49.30577 | 1509 ft | 107 kts | 163° |
| 2026-05-07 17:34 | 55.53611 | 49.30888 | 1509 ft | 112 kts | 163° |
| 2026-05-07 17:34 | 55.52850 | 49.31208 | 1505 ft | 111 kts | 163° |
| 2026-05-07 17:35 | 55.52112 | 49.31519 | 1494 ft | 107 kts | 163° |
| 2026-05-07 17:35 | 55.51407 | 49.31811 | 1491 ft | 104 kts | 163° |
| 2026-05-07 17:35 | 55.50711 | 49.32097 | 1490 ft | 102 kts | 163° |
| 2026-05-07 17:35 | 55.50022 | 49.32380 | 1495 ft | 102 kts | 163° |
| 2026-05-07 17:36 | 55.49323 | 49.32674 | 1499 ft | 104 kts | 163° |
| 2026-05-07 17:36 | 55.48613 | 49.32970 | 1502 ft | 105 kts | 163° |
| 2026-05-07 17:36 | 55.47904 | 49.33266 | 1509 ft | 108 kts | 163° |
| 2026-05-07 17:36 | 55.47158 | 49.33579 | 1512 ft | 112 kts | 163° |
| 2026-05-07 17:37 | 55.46391 | 49.33908 | 1508 ft | 113 kts | 163° |
| 2026-05-07 17:37 | 55.45625 | 49.34240 | 1506 ft | 112 kts | 163° |
| 2026-05-07 17:37 | 55.44881 | 49.34560 | 1505 ft | 111 kts | 163° |
| 2026-05-07 17:37 | 55.44136 | 49.34882 | 1503 ft | 109 kts | 163° |
| 2026-05-07 17:38 | 55.43397 | 49.35202 | 1499 ft | 109 kts | 163° |
| 2026-05-07 17:38 | 55.42661 | 49.35520 | 1497 ft | 108 kts | 163° |
| 2026-05-07 17:38 | 55.41928 | 49.35838 | 1496 ft | 108 kts | 163° |
| 2026-05-07 17:38 | 55.41206 | 49.36148 | 1496 ft | 108 kts | 163° |
| 2026-05-07 17:39 | 55.40505 | 49.36608 | 1492 ft | 105 kts | 144° |
| 2026-05-07 17:39 | 55.39886 | 49.37257 | 1492 ft | 105 kts | 146° |
| 2026-05-07 17:39 | 55.39256 | 49.37909 | 1495 ft | 105 kts | 146° |
| 2026-05-07 17:39 | 55.38625 | 49.38570 | 1495 ft | 106 kts | 146° |
| 2026-05-07 17:40 | 55.37988 | 49.39236 | 1495 ft | 107 kts | 146° |
| 2026-05-07 17:40 | 55.37348 | 49.39907 | 1496 ft | 107 kts | 146° |
| 2026-05-07 17:40 | 55.36706 | 49.40577 | 1495 ft | 107 kts | 146° |
| 2026-05-07 17:40 | 55.36074 | 49.41235 | 1495 ft | 106 kts | 146° |
| 2026-05-07 17:41 | 55.35441 | 49.41898 | 1497 ft | 105 kts | 146° |
| 2026-05-07 17:41 | 55.34811 | 49.42562 | 1496 ft | 105 kts | 146° |
| 2026-05-07 17:41 | 55.34183 | 49.43227 | 1493 ft | 105 kts | 146° |
| 2026-05-07 17:41 | 55.33565 | 49.43884 | 1494 ft | 105 kts | 146° |
| 2026-05-07 17:42 | 55.32940 | 49.44550 | 1491 ft | 105 kts | 146° |
| 2026-05-07 17:42 | 55.32320 | 49.45211 | 1494 ft | 104 kts | 146° |
| 2026-05-07 17:42 | 55.31700 | 49.45869 | 1493 ft | 104 kts | 146° |
| 2026-05-07 17:42 | 55.31079 | 49.46525 | 1491 ft | 104 kts | 146° |
| 2026-05-07 17:43 | 55.30464 | 49.47171 | 1488 ft | 104 kts | 146° |
| 2026-05-07 17:43 | 55.29839 | 49.47827 | 1490 ft | 105 kts | 146° |
| 2026-05-07 17:43 | 55.29211 | 49.48486 | 1491 ft | 105 kts | 146° |
| 2026-05-07 17:43 | 55.28583 | 49.49145 | 1491 ft | 105 kts | 146° |
| 2026-05-07 17:44 | 55.27963 | 49.49796 | 1494 ft | 104 kts | 146° |
| 2026-05-07 17:44 | 55.27338 | 49.50453 | 1494 ft | 105 kts | 146° |
| 2026-05-07 17:44 | 55.26711 | 49.51113 | 1493 ft | 105 kts | 146° |
| 2026-05-07 17:44 | 55.26088 | 49.51776 | 1494 ft | 105 kts | 146° |
| 2026-05-07 17:45 | 55.25457 | 49.52444 | 1494 ft | 105 kts | 146° |
| 2026-05-07 17:45 | 55.24836 | 49.53104 | 1495 ft | 106 kts | 146° |
| 2026-05-07 17:45 | 55.24205 | 49.53770 | 1494 ft | 105 kts | 146° |
| 2026-05-07 17:45 | 55.23575 | 49.54435 | 1491 ft | 105 kts | 146° |
| 2026-05-07 17:46 | 55.22957 | 49.55088 | 1490 ft | 105 kts | 146° |
| 2026-05-07 17:46 | 55.22331 | 49.55746 | 1490 ft | 105 kts | 146° |
| 2026-05-07 17:46 | 55.21705 | 49.56414 | 1492 ft | 105 kts | 146° |
| 2026-05-07 17:46 | 55.21074 | 49.57082 | 1493 ft | 106 kts | 146° |
| 2026-05-07 17:47 | 55.20442 | 49.57751 | 1494 ft | 106 kts | 146° |
| 2026-05-07 17:47 | 55.19816 | 49.58416 | 1494 ft | 106 kts | 146° |
| 2026-05-07 17:47 | 55.19189 | 49.59082 | 1489 ft | 104 kts | 146° |
| 2026-05-07 17:47 | 55.18575 | 49.59729 | 1489 ft | 102 kts | 146° |
| 2026-05-07 17:48 | 55.17967 | 49.60367 | 1489 ft | 103 kts | 146° |
| 2026-05-07 17:48 | 55.17347 | 49.61020 | 1490 ft | 104 kts | 146° |
| 2026-05-07 17:48 | 55.16935 | 49.61457 | 1491 ft | 104 kts | 146° |
| 2026-05-07 17:48 | 55.16311 | 49.62118 | 1491 ft | 105 kts | 146° |
| 2026-05-07 17:49 | 55.15685 | 49.62779 | 1493 ft | 105 kts | 146° |
| 2026-05-07 17:49 | 55.15054 | 49.63449 | 1494 ft | 106 kts | 146° |
| 2026-05-07 17:49 | 55.14430 | 49.64114 | 1496 ft | 106 kts | 146° |
| 2026-05-07 17:49 | 55.13589 | 49.65018 | 1498 ft | 107 kts | 146° |
| 2026-05-07 17:50 | 55.13162 | 49.65482 | 1493 ft | 105 kts | 146° |
| 2026-05-07 17:50 | 55.12560 | 49.66128 | 1491 ft | 100 kts | 146° |
| 2026-05-07 17:50 | 55.11968 | 49.66759 | 1487 ft | 99 kts | 146° |
| 2026-05-07 17:50 | 55.11386 | 49.67374 | 1491 ft | 96 kts | 146° |
| 2026-05-07 17:51 | 55.10805 | 49.67982 | 1492 ft | 97 kts | 146° |
| 2026-05-07 17:51 | 55.10218 | 49.68601 | 1496 ft | 99 kts | 146° |
| 2026-05-07 17:51 | 55.09629 | 49.69220 | 1499 ft | 101 kts | 146° |
| 2026-05-07 17:51 | 55.09024 | 49.69860 | 1503 ft | 102 kts | 146° |
| 2026-05-07 17:52 | 55.08414 | 49.70513 | 1502 ft | 103 kts | 146° |
| 2026-05-07 17:52 | 55.07804 | 49.71169 | 1501 ft | 103 kts | 146° |
| 2026-05-07 17:52 | 55.07193 | 49.71818 | 1502 ft | 103 kts | 146° |
| 2026-05-07 17:52 | 55.06588 | 49.72457 | 1501 ft | 103 kts | 146° |
| 2026-05-07 17:53 | 55.05975 | 49.73106 | 1501 ft | 103 kts | 146° |
| 2026-05-07 17:53 | 55.05362 | 49.73753 | 1506 ft | 104 kts | 145° |
| 2026-05-07 17:53 | 55.04732 | 49.74387 | 1502 ft | 105 kts | 146° |
| 2026-05-07 17:53 | 55.04091 | 49.75024 | 1504 ft | 106 kts | 146° |
| 2026-05-07 17:54 | 55.03453 | 49.75665 | 1507 ft | 108 kts | 146° |
| 2026-05-07 17:54 | 55.02797 | 49.76326 | 1507 ft | 109 kts | 146° |
| 2026-05-07 17:54 | 55.02132 | 49.76986 | 1507 ft | 110 kts | 146° |
| 2026-05-07 17:54 | 55.01464 | 49.77634 | 1508 ft | 110 kts | 146° |
| 2026-05-07 17:55 | 55.00797 | 49.78283 | 1508 ft | 110 kts | 146° |
| 2026-05-07 17:55 | 55.00130 | 49.78941 | 1506 ft | 110 kts | 146° |
| 2026-05-07 17:55 | 54.99463 | 49.79580 | 1500 ft | 109 kts | 149° |
| 2026-05-07 17:55 | 54.98797 | 49.80162 | 1499 ft | 108 kts | 149° |
| 2026-05-07 17:56 | 54.98119 | 49.80764 | 1502 ft | 110 kts | 149° |
| 2026-05-07 17:56 | 54.97431 | 49.81384 | 1500 ft | 111 kts | 149° |
| 2026-05-07 17:56 | 54.96753 | 49.82002 | 1503 ft | 111 kts | 149° |
| 2026-05-07 17:56 | 54.96063 | 49.82632 | 1504 ft | 112 kts | 149° |
| 2026-05-07 17:57 | 54.95378 | 49.83256 | 1507 ft | 112 kts | 148° |
| 2026-05-07 17:57 | 54.94907 | 49.83682 | 1505 ft | 113 kts | 149° |
| 2026-05-07 17:57 | 54.93977 | 49.84521 | 1504 ft | 114 kts | 149° |
| 2026-05-07 17:57 | 54.93268 | 49.85154 | 1505 ft | 115 kts | 149° |
| 2026-05-07 17:58 | 54.92557 | 49.85789 | 1505 ft | 115 kts | 149° |
| 2026-05-07 17:58 | 54.91853 | 49.86415 | 1501 ft | 114 kts | 148° |
| 2026-05-07 17:58 | 54.91142 | 49.87052 | 1505 ft | 115 kts | 149° |
| 2026-05-07 17:58 | 54.90424 | 49.87686 | 1505 ft | 116 kts | 149° |
| 2026-05-07 17:59 | 54.89700 | 49.88316 | 1503 ft | 117 kts | 149° |
| 2026-05-07 17:59 | 54.88972 | 49.88949 | 1501 ft | 116 kts | 149° |
| 2026-05-07 17:59 | 54.88258 | 49.89573 | 1495 ft | 113 kts | 149° |
| 2026-05-07 17:59 | 54.87638 | 49.90299 | 1474 ft | 103 kts | 117° |
| 2026-05-07 18:00 | 54.87721 | 49.91342 | 1488 ft | 92 kts | 41° |
| 2026-05-07 18:00 | 54.88331 | 49.91343 | 1494 ft | 99 kts | 332° |
| 2026-05-07 18:00 | 54.88912 | 49.90680 | 1507 ft | 100 kts | 333° |
| 2026-05-07 18:00 | 54.89505 | 49.90007 | 1506 ft | 103 kts | 333° |
| 2026-05-07 18:01 | 54.90116 | 49.89317 | 1503 ft | 106 kts | 333° |
| 2026-05-07 18:01 | 54.90727 | 49.88632 | 1500 ft | 106 kts | 333° |
| 2026-05-07 18:01 | 54.91349 | 49.87928 | 1502 ft | 107 kts | 333° |
| 2026-05-07 18:01 | 54.91792 | 49.86891 | 1483 ft | 117 kts | 279° |
| 2026-05-07 18:02 | 54.90711 | 49.85697 | 1483 ft | 106 kts | 141° |
| 2026-05-07 18:02 | 54.90146 | 49.86486 | 1496 ft | 104 kts | 138° |
| 2026-05-07 18:02 | 54.89584 | 49.87266 | 1497 ft | 104 kts | 137° |
| 2026-05-07 18:03 | 54.89011 | 49.88060 | 1502 ft | 106 kts | 136° |
| 2026-05-07 18:03 | 54.88499 | 49.88956 | 1498 ft | 103 kts | 118° |
| 2026-05-07 18:03 | 54.88166 | 49.90054 | 1496 ft | 102 kts | 106° |
| 2026-05-07 18:03 | 54.88163 | 49.91234 | 1489 ft | 99 kts | 75° |
| 2026-05-07 18:04 | 54.88552 | 49.92176 | 1489 ft | 98 kts | 29° |
| 2026-05-07 18:04 | 54.89230 | 49.92146 | 1493 ft | 104 kts | 347° |
| 2026-05-07 18:04 | 54.89849 | 49.91515 | 1481 ft | 111 kts | 304° |
| 2026-05-07 18:04 | 54.89811 | 49.90204 | 1497 ft | 114 kts | 245° |
| 2026-05-07 18:05 | 54.89326 | 49.89134 | 1496 ft | 115 kts | 221° |
| 2026-05-07 18:05 | 54.88600 | 49.88790 | 1487 ft | 109 kts | 156° |
| 2026-05-07 18:05 | 54.88202 | 49.89729 | 1485 ft | 98 kts | 86° |
| 2026-05-07 18:05 | 54.88478 | 49.90766 | 1498 ft | 96 kts | 57° |
| 2026-05-07 18:06 | 54.89052 | 49.91333 | 1491 ft | 98 kts | 20° |
| 2026-05-07 18:06 | 54.89719 | 49.91154 | 1492 ft | 105 kts | 329° |
| 2026-05-07 18:06 | 54.90008 | 49.90003 | 1484 ft | 113 kts | 262° |
| 2026-05-07 18:06 | 54.89575 | 49.88903 | 1495 ft | 113 kts | 227° |
| 2026-05-07 18:07 | 54.88919 | 49.88193 | 1494 ft | 112 kts | 187° |
| 2026-05-07 18:07 | 54.88183 | 49.88428 | 1489 ft | 107 kts | 144° |
| 2026-05-07 18:07 | 54.87684 | 49.89336 | 1488 ft | 103 kts | 120° |
| 2026-05-07 18:07 | 54.87588 | 49.90492 | 1493 ft | 98 kts | 83° |
| 2026-05-07 18:08 | 54.87849 | 49.91565 | 1485 ft | 98 kts | 50° |
| 2026-05-07 18:08 | 54.88474 | 49.91970 | 1481 ft | 103 kts | 354° |
| 2026-05-07 18:08 | 54.88957 | 49.91076 | 1487 ft | 112 kts | 282° |
| 2026-05-07 18:08 | 54.88664 | 49.89901 | 1483 ft | 113 kts | 211° |
| 2026-05-07 18:09 | 54.87952 | 49.89899 | 1488 ft | 103 kts | 139° |
| 2026-05-07 18:09 | 54.87763 | 49.90954 | 1486 ft | 95 kts | 67° |
| 2026-05-07 18:09 | 54.88196 | 49.91813 | 1493 ft | 96 kts | 38° |
| 2026-05-07 18:09 | 54.88842 | 49.91754 | 1486 ft | 106 kts | 325° |
| 2026-05-07 18:10 | 54.89039 | 49.90536 | 1484 ft | 113 kts | 253° |
| 2026-05-07 18:10 | 54.88468 | 49.89719 | 1485 ft | 110 kts | 181° |
| 2026-05-07 18:10 | 54.87874 | 49.90293 | 1484 ft | 99 kts | 109° |
| 2026-05-07 18:10 | 54.88031 | 49.91322 | 1487 ft | 96 kts | 38° |
| 2026-05-07 18:11 | 54.88680 | 49.91256 | 1484 ft | 105 kts | 324° |
| 2026-05-07 18:11 | 54.88897 | 49.90501 | 1483 ft | 111 kts | 276° |
| 2026-05-07 18:11 | 54.88286 | 49.89266 | 1484 ft | 109 kts | 180° |
| 2026-05-07 18:11 | 54.87705 | 49.89871 | 1488 ft | 99 kts | 108° |
| 2026-05-07 18:12 | 54.87863 | 49.90922 | 1493 ft | 95 kts | 48° |
| 2026-05-07 18:12 | 54.88491 | 49.91152 | 1488 ft | 103 kts | 340° |
| 2026-05-07 18:12 | 54.88837 | 49.90073 | 1483 ft | 112 kts | 267° |
| 2026-05-07 18:12 | 54.88391 | 49.89065 | 1486 ft | 111 kts | 196° |
| 2026-05-07 18:13 | 54.87713 | 49.89373 | 1484 ft | 102 kts | 124° |
| 2026-05-07 18:13 | 54.87697 | 49.90474 | 1484 ft | 97 kts | 53° |
| 2026-05-07 18:13 | 54.88315 | 49.90731 | 1486 ft | 103 kts | 341° |
| 2026-05-07 18:13 | 54.88679 | 49.89677 | 1483 ft | 112 kts | 269° |
| 2026-05-07 18:14 | 54.88239 | 49.88639 | 1488 ft | 111 kts | 197° |
| 2026-05-07 18:14 | 54.87559 | 49.88926 | 1484 ft | 102 kts | 125° |
| 2026-05-07 18:14 | 54.87528 | 49.90012 | 1489 ft | 96 kts | 54° |
| 2026-05-07 18:14 | 54.88006 | 49.90824 | 1498 ft | 95 kts | 49° |
| 2026-05-07 18:15 | 54.88635 | 49.91015 | 1487 ft | 104 kts | 336° |
| 2026-05-07 18:15 | 54.88948 | 49.89911 | 1483 ft | 113 kts | 264° |
| 2026-05-07 18:15 | 54.88469 | 49.88927 | 1487 ft | 111 kts | 193° |
| 2026-05-07 18:15 | 54.87764 | 49.89204 | 1492 ft | 104 kts | 139° |
| 2026-05-07 18:16 | 54.87475 | 49.90277 | 1490 ft | 99 kts | 98° |
| 2026-05-07 18:16 | 54.87421 | 49.91437 | 1486 ft | 97 kts | 75° |
| 2026-05-07 18:16 | 54.87875 | 49.92214 | 1486 ft | 101 kts | 11° |
| 2026-05-07 18:16 | 54.88477 | 49.91622 | 1485 ft | 111 kts | 299° |
| 2026-05-07 18:17 | 54.88520 | 49.90291 | 1484 ft | 114 kts | 250° |
| 2026-05-07 18:17 | 54.87932 | 49.89528 | 1485 ft | 110 kts | 179° |
| 2026-05-07 18:17 | 54.87349 | 49.90147 | 1484 ft | 99 kts | 108° |
| 2026-05-07 18:17 | 54.87529 | 49.91170 | 1484 ft | 96 kts | 36° |
| 2026-05-07 18:18 | 54.88179 | 49.91068 | 1488 ft | 105 kts | 323° |
| 2026-05-07 18:18 | 54.88456 | 49.89870 | 1497 ft | 109 kts | 287° |
| 2026-05-07 18:18 | 54.88320 | 49.88612 | 1485 ft | 113 kts | 225° |
| 2026-05-07 18:18 | 54.87614 | 49.88316 | 1485 ft | 106 kts | 154° |
| 2026-05-07 18:19 | 54.87256 | 49.89269 | 1486 ft | 97 kts | 83° |
| 2026-05-07 18:19 | 54.87577 | 49.90276 | 1499 ft | 96 kts | 62° |
| 2026-05-07 18:19 | 54.87921 | 49.91270 | 1503 ft | 96 kts | 57° |
| 2026-05-07 18:19 | 54.88512 | 49.91682 | 1483 ft | 104 kts | 349° |
| 2026-05-07 18:20 | 54.88959 | 49.90718 | 1487 ft | 112 kts | 278° |
| 2026-05-07 18:20 | 54.88612 | 49.89568 | 1485 ft | 112 kts | 206° |
| 2026-05-07 18:20 | 54.87909 | 49.89665 | 1483 ft | 103 kts | 135° |
| 2026-05-07 18:20 | 54.87775 | 49.90728 | 1489 ft | 95 kts | 63° |
| 2026-05-07 18:21 | 54.88349 | 49.91160 | 1485 ft | 102 kts | 350° |
| 2026-05-07 18:21 | 54.88791 | 49.90223 | 1487 ft | 111 kts | 277° |
| 2026-05-07 18:21 | 54.88439 | 49.89096 | 1482 ft | 111 kts | 205° |
| 2026-05-07 18:21 | 54.87745 | 49.89232 | 1489 ft | 102 kts | 133° |
| 2026-05-07 18:22 | 54.87634 | 49.90305 | 1487 ft | 96 kts | 61° |
| 2026-05-07 18:22 | 54.87999 | 49.90738 | 1484 ft | 99 kts | 12° |
| 2026-05-07 18:22 | 54.88908 | 49.90461 | 1492 ft | 104 kts | 337° |
| 2026-05-07 18:22 | 54.89212 | 49.89356 | 1487 ft | 113 kts | 263° |
| 2026-05-07 18:23 | 54.88721 | 49.88387 | 1483 ft | 111 kts | 191° |
| 2026-05-07 18:23 | 54.88060 | 49.88780 | 1488 ft | 101 kts | 120° |
| 2026-05-07 18:23 | 54.88061 | 49.89909 | 1497 ft | 96 kts | 69° |
| 2026-05-07 18:23 | 54.88262 | 49.91005 | 1499 ft | 96 kts | 70° |
| 2026-05-07 18:24 | 54.88779 | 49.91652 | 1486 ft | 102 kts | 1° |
| 2026-05-07 18:24 | 54.89326 | 49.90878 | 1484 ft | 112 kts | 290° |
| 2026-05-07 18:24 | 54.89122 | 49.89655 | 1487 ft | 112 kts | 219° |
| 2026-05-07 18:24 | 54.88415 | 49.89493 | 1486 ft | 104 kts | 147° |
| 2026-05-07 18:25 | 54.88044 | 49.90474 | 1497 ft | 98 kts | 109° |
| 2026-05-07 18:25 | 54.87847 | 49.91586 | 1489 ft | 97 kts | 81° |
| 2026-05-07 18:25 | 54.88319 | 49.92294 | 1485 ft | 101 kts | 7° |
| 2026-05-07 18:25 | 54.88896 | 49.91625 | 1484 ft | 111 kts | 295° |
| 2026-05-07 18:26 | 54.88794 | 49.90325 | 1485 ft | 113 kts | 234° |
| 2026-05-07 18:26 | 54.88130 | 49.89851 | 1482 ft | 106 kts | 162° |
| 2026-05-07 18:26 | 54.87699 | 49.90699 | 1488 ft | 95 kts | 90° |
| 2026-05-07 18:26 | 54.87979 | 49.91689 | 1487 ft | 96 kts | 36° |
| 2026-05-07 18:27 | 54.88634 | 49.91592 | 1485 ft | 106 kts | 327° |
| 2026-05-07 18:27 | 54.88856 | 49.90414 | 1484 ft | 112 kts | 255° |
| 2026-05-07 18:27 | 54.88301 | 49.89566 | 1488 ft | 111 kts | 184° |
| 2026-05-07 18:27 | 54.87832 | 49.89775 | 1487 ft | 103 kts | 137° |
| 2026-05-07 18:28 | 54.87781 | 49.91161 | 1493 ft | 94 kts | 57° |
| 2026-05-07 18:28 | 54.88314 | 49.91831 | 1493 ft | 98 kts | 25° |
| 2026-05-07 18:28 | 54.88969 | 49.91576 | 1486 ft | 108 kts | 315° |
| 2026-05-07 18:28 | 54.89061 | 49.90329 | 1485 ft | 113 kts | 244° |
| 2026-05-07 18:29 | 54.88438 | 49.89679 | 1486 ft | 106 kts | 173° |
| 2026-05-07 18:29 | 54.87750 | 49.90023 | 1483 ft | 102 kts | 132° |
| 2026-05-07 18:29 | 54.87666 | 49.91089 | 1485 ft | 94 kts | 58° |
| 2026-05-07 18:29 | 54.88258 | 49.91423 | 1487 ft | 102 kts | 346° |
| 2026-05-07 18:30 | 54.88661 | 49.90424 | 1483 ft | 111 kts | 272° |
| 2026-05-07 18:30 | 54.88264 | 49.89350 | 1487 ft | 110 kts | 200° |
| 2026-05-07 18:30 | 54.87594 | 49.89571 | 1485 ft | 100 kts | 128° |
| 2026-05-07 18:30 | 54.87549 | 49.90641 | 1489 ft | 94 kts | 54° |
| 2026-05-07 18:31 | 54.88159 | 49.90914 | 1485 ft | 102 kts | 343° |
| 2026-05-07 18:31 | 54.88524 | 49.89876 | 1482 ft | 111 kts | 268° |
| 2026-05-07 18:31 | 54.88078 | 49.88880 | 1488 ft | 108 kts | 194° |
| 2026-05-07 18:31 | 54.87437 | 49.89240 | 1488 ft | 98 kts | 120° |
| 2026-05-07 18:32 | 54.87461 | 49.90305 | 1487 ft | 95 kts | 49° |
| 2026-05-07 18:32 | 54.88090 | 49.90466 | 1487 ft | 102 kts | 338° |
| 2026-05-07 18:32 | 54.88694 | 49.89794 | 1491 ft | 106 kts | 320° |
| 2026-05-07 18:32 | 54.88814 | 49.88574 | 1485 ft | 113 kts | 245° |
| 2026-05-07 18:33 | 54.88191 | 49.87908 | 1486 ft | 108 kts | 172° |
| 2026-05-07 18:33 | 54.87669 | 49.88626 | 1485 ft | 97 kts | 100° |
| 2026-05-07 18:33 | 54.87934 | 49.89594 | 1486 ft | 97 kts | 32° |
| 2026-05-07 18:33 | 54.88554 | 49.90024 | 1490 ft | 100 kts | 9° |
| 2026-05-07 18:34 | 54.89120 | 49.89363 | 1485 ft | 110 kts | 294° |
| 2026-05-07 18:34 | 54.88952 | 49.88113 | 1487 ft | 112 kts | 221° |
| 2026-05-07 18:34 | 54.88248 | 49.87651 | 1495 ft | 110 kts | 192° |
| 2026-05-07 18:34 | 54.87539 | 49.87827 | 1486 ft | 103 kts | 131° |
| 2026-05-07 18:35 | 54.87442 | 49.88925 | 1487 ft | 97 kts | 63° |
| 2026-05-07 18:35 | 54.87755 | 49.89958 | 1498 ft | 97 kts | 57° |
| 2026-05-07 18:35 | 54.88147 | 49.90889 | 1499 ft | 96 kts | 56° |
| 2026-05-07 18:35 | 54.88652 | 49.91625 | 1482 ft | 102 kts | 12° |
| 2026-05-07 18:36 | 54.89253 | 49.91030 | 1488 ft | 110 kts | 300° |
| 2026-05-07 18:36 | 54.89161 | 49.89753 | 1482 ft | 113 kts | 227° |
| 2026-05-07 18:36 | 54.88716 | 49.89368 | 1481 ft | 108 kts | 178° |
| 2026-05-07 18:36 | 54.88031 | 49.89735 | 1498 ft | 103 kts | 154° |
| 2026-05-07 18:37 | 54.87674 | 49.90967 | 1486 ft | 94 kts | 63° |
| 2026-05-07 18:37 | 54.88018 | 49.91404 | 1488 ft | 98 kts | 15° |
| 2026-05-07 18:37 | 54.88620 | 49.90883 | 1483 ft | 109 kts | 303° |
| 2026-05-07 18:37 | 54.88350 | 49.89348 | 1490 ft | 110 kts | 212° |
| 2026-05-07 18:38 | 54.87925 | 49.88837 | 1499 ft | 110 kts | 214° |
| 2026-05-07 18:38 | 54.87242 | 49.88399 | 1481 ft | 107 kts | 162° |
| 2026-05-07 18:38 | 54.86810 | 49.89258 | 1485 ft | 97 kts | 92° |
| 2026-05-07 18:38 | 54.87142 | 49.90202 | 1495 ft | 96 kts | 37° |
| 2026-05-07 18:39 | 54.87795 | 49.90415 | 1486 ft | 102 kts | 354° |
| 2026-05-07 18:39 | 54.88262 | 49.89514 | 1482 ft | 111 kts | 279° |
| 2026-05-07 18:39 | 54.87933 | 49.88370 | 1486 ft | 111 kts | 206° |
| 2026-05-07 18:39 | 54.87247 | 49.88454 | 1484 ft | 101 kts | 134° |
| 2026-05-07 18:40 | 54.86978 | 49.89505 | 1488 ft | 96 kts | 85° |
| 2026-05-07 18:40 | 54.87401 | 49.90294 | 1484 ft | 99 kts | 12° |
| 2026-05-07 18:40 | 54.87994 | 49.89734 | 1495 ft | 107 kts | 309° |
| 2026-05-07 18:40 | 54.88147 | 49.88482 | 1484 ft | 113 kts | 250° |
| 2026-05-07 18:41 | 54.87557 | 49.87719 | 1487 ft | 108 kts | 178° |
| 2026-05-07 18:41 | 54.86992 | 49.88335 | 1485 ft | 98 kts | 107° |
| 2026-05-07 18:41 | 54.87158 | 49.89397 | 1496 ft | 96 kts | 54° |
| 2026-05-07 18:41 | 54.87554 | 49.90338 | 1498 ft | 96 kts | 56° |
| 2026-05-07 18:42 | 54.88022 | 49.91117 | 1488 ft | 99 kts | 21° |
| 2026-05-07 18:42 | 54.88710 | 49.91273 | 1483 ft | 103 kts | 353° |
| 2026-05-07 18:42 | 54.89182 | 49.90358 | 1486 ft | 112 kts | 280° |
| 2026-05-07 18:42 | 54.88851 | 49.89206 | 1483 ft | 111 kts | 205° |
| 2026-05-07 18:43 | 54.88151 | 49.89291 | 1489 ft | 101 kts | 140° |
| 2026-05-07 18:43 | 54.87955 | 49.90316 | 1483 ft | 95 kts | 69° |
| 2026-05-07 18:43 | 54.88311 | 49.91265 | 1494 ft | 95 kts | 42° |
| 2026-05-07 18:43 | 54.88956 | 49.91251 | 1485 ft | 105 kts | 327° |
| 2026-05-07 18:44 | 54.89167 | 49.90053 | 1487 ft | 113 kts | 254° |
| 2026-05-07 18:44 | 54.88619 | 49.89231 | 1483 ft | 108 kts | 182° |
| 2026-05-07 18:44 | 54.88040 | 49.89787 | 1488 ft | 96 kts | 109° |
| 2026-05-07 18:44 | 54.88164 | 49.90851 | 1498 ft | 93 kts | 59° |
| 2026-05-07 18:45 | 54.88647 | 49.91553 | 1485 ft | 98 kts | 12° |
| 2026-05-07 18:45 | 54.89317 | 49.91654 | 1496 ft | 97 kts | 12° |
| 2026-05-07 18:45 | 54.89995 | 49.91745 | 1494 ft | 100 kts | 2° |
| 2026-05-07 18:45 | 54.90520 | 49.90975 | 1486 ft | 111 kts | 287° |
| 2026-05-07 18:46 | 54.90275 | 49.89762 | 1486 ft | 112 kts | 215° |
| 2026-05-07 18:46 | 54.89568 | 49.89682 | 1488 ft | 103 kts | 143° |
| 2026-05-07 18:46 | 54.89342 | 49.90701 | 1486 ft | 95 kts | 71° |
| 2026-05-07 18:46 | 54.89864 | 49.91275 | 1483 ft | 100 kts | 359° |
| 2026-05-07 18:47 | 54.90407 | 49.90501 | 1498 ft | 107 kts | 309° |
| 2026-05-07 18:47 | 54.90635 | 49.89278 | 1485 ft | 114 kts | 257° |
| 2026-05-07 18:47 | 54.90110 | 49.88389 | 1486 ft | 109 kts | 186° |
| 2026-05-07 18:47 | 54.89481 | 49.88864 | 1492 ft | 99 kts | 126° |
| 2026-05-07 18:48 | 54.89143 | 49.89865 | 1484 ft | 97 kts | 91° |
| 2026-05-07 18:48 | 54.89523 | 49.90718 | 1484 ft | 99 kts | 18° |
| 2026-05-07 18:48 | 54.90144 | 49.90234 | 1487 ft | 110 kts | 305° |
| 2026-05-07 18:48 | 54.90298 | 49.88915 | 1499 ft | 112 kts | 282° |
| 2026-05-07 18:49 | 54.90261 | 49.87592 | 1483 ft | 116 kts | 239° |
| 2026-05-07 18:49 | 54.89631 | 49.86772 | 1498 ft | 113 kts | 209° |
| 2026-05-07 18:49 | 54.88925 | 49.86280 | 1482 ft | 108 kts | 169° |
| 2026-05-07 18:49 | 54.88267 | 49.86772 | 1498 ft | 104 kts | 151° |
| 2026-05-07 18:50 | 54.87615 | 49.87317 | 1498 ft | 104 kts | 146° |
| 2026-05-07 18:50 | 54.87319 | 49.88325 | 1491 ft | 96 kts | 76° |
| 2026-05-07 18:50 | 54.87614 | 49.89370 | 1500 ft | 96 kts | 65° |
| 2026-05-07 18:50 | 54.87923 | 49.90405 | 1502 ft | 96 kts | 64° |
| 2026-05-07 18:51 | 54.88225 | 49.91427 | 1498 ft | 96 kts | 64° |
| 2026-05-07 18:51 | 54.88534 | 49.92448 | 1496 ft | 95 kts | 62° |
| 2026-05-07 18:51 | 54.89105 | 49.92919 | 1487 ft | 102 kts | 351° |
| 2026-05-07 18:51 | 54.89555 | 49.91997 | 1482 ft | 110 kts | 277° |
| 2026-05-07 18:52 | 54.89210 | 49.90906 | 1487 ft | 107 kts | 202° |
| 2026-05-07 18:52 | 54.88524 | 49.90958 | 1494 ft | 99 kts | 149° |
| 2026-05-07 18:52 | 54.88247 | 49.91896 | 1488 ft | 92 kts | 75° |
| 2026-05-07 18:52 | 54.88729 | 49.92571 | 1497 ft | 94 kts | 25° |
| 2026-05-07 18:53 | 54.89332 | 49.93020 | 1504 ft | 95 kts | 26° |
| 2026-05-07 18:53 | 54.89977 | 49.93113 | 1489 ft | 104 kts | 335° |
| 2026-05-07 18:53 | 54.90274 | 49.91993 | 1487 ft | 110 kts | 261° |
| 2026-05-07 18:53 | 54.89794 | 49.91032 | 1492 ft | 107 kts | 207° |
| 2026-05-07 18:54 | 54.89103 | 49.90726 | 1484 ft | 102 kts | 155° |
| 2026-05-07 18:54 | 54.88776 | 49.91626 | 1487 ft | 92 kts | 80° |
| 2026-05-07 18:54 | 54.89229 | 49.92280 | 1488 ft | 97 kts | 4° |
| 2026-05-07 18:54 | 54.89746 | 49.91570 | 1484 ft | 107 kts | 288° |
| 2026-05-07 18:55 | 54.89506 | 49.90413 | 1487 ft | 107 kts | 212° |
| 2026-05-07 18:55 | 54.88810 | 49.90396 | 1496 ft | 103 kts | 148° |
| 2026-05-07 18:55 | 54.88228 | 49.91049 | 1492 ft | 98 kts | 123° |
| 2026-05-07 18:55 | 54.88009 | 49.92118 | 1487 ft | 93 kts | 91° |
| 2026-05-07 18:56 | 54.88366 | 49.92933 | 1483 ft | 95 kts | 14° |
| 2026-05-07 18:56 | 54.88991 | 49.92543 | 1490 ft | 101 kts | 323° |
| 2026-05-07 18:56 | 54.89504 | 49.91707 | 1496 ft | 101 kts | 324° |
| 2026-05-07 18:56 | 54.90034 | 49.90911 | 1500 ft | 102 kts | 328° |
| 2026-05-07 18:57 | 54.90634 | 49.90267 | 1507 ft | 100 kts | 347° |
| 2026-05-07 18:57 | 54.91296 | 49.89828 | 1504 ft | 102 kts | 348° |
| 2026-05-07 18:57 | 54.91987 | 49.89596 | 1503 ft | 102 kts | 355° |
| 2026-05-07 18:57 | 54.92687 | 49.89378 | 1503 ft | 102 kts | 355° |
| 2026-05-07 18:58 | 54.93379 | 49.89164 | 1502 ft | 102 kts | 356° |
| 2026-05-07 18:58 | 54.94081 | 49.88948 | 1502 ft | 102 kts | 356° |
| 2026-05-07 18:58 | 54.94778 | 49.88849 | 1499 ft | 100 kts | 6° |
| 2026-05-07 18:58 | 54.95468 | 49.88829 | 1505 ft | 102 kts | 5° |
| 2026-05-07 18:59 | 54.96185 | 49.88818 | 1503 ft | 103 kts | 5° |
| 2026-05-07 18:59 | 54.96909 | 49.88817 | 1502 ft | 104 kts | 5° |
| 2026-05-07 18:59 | 54.97644 | 49.88819 | 1499 ft | 106 kts | 4° |
| 2026-05-07 18:59 | 54.98381 | 49.88739 | 1501 ft | 106 kts | 1° |
| 2026-05-07 19:00 | 54.99117 | 49.88648 | 1503 ft | 108 kts | 1° |
| 2026-05-07 19:00 | 54.99872 | 49.88541 | 1502 ft | 108 kts | 1° |
| 2026-05-07 19:00 | 55.00621 | 49.88434 | 1501 ft | 108 kts | 1° |
| 2026-05-07 19:00 | 55.01372 | 49.88330 | 1502 ft | 108 kts | 1° |
| 2026-05-07 19:01 | 55.02119 | 49.88230 | 1498 ft | 110 kts | 1° |
| 2026-05-07 19:01 | 55.02884 | 49.88129 | 1499 ft | 110 kts | 1° |
| 2026-05-07 19:01 | 55.03651 | 49.88025 | 1497 ft | 110 kts | 1° |
| 2026-05-07 19:01 | 55.04414 | 49.87921 | 1497 ft | 109 kts | 1° |
| 2026-05-07 19:02 | 55.05168 | 49.87858 | 1499 ft | 107 kts | 7° |
| 2026-05-07 19:02 | 55.05908 | 49.87897 | 1499 ft | 107 kts | 7° |
| 2026-05-07 19:02 | 55.06658 | 49.87941 | 1500 ft | 108 kts | 7° |
| 2026-05-07 19:02 | 55.07404 | 49.87984 | 1497 ft | 108 kts | 7° |
| 2026-05-07 19:03 | 55.08157 | 49.88033 | 1500 ft | 108 kts | 7° |
| 2026-05-07 19:03 | 55.08909 | 49.88092 | 1501 ft | 108 kts | 9° |
| 2026-05-07 19:03 | 55.09654 | 49.88232 | 1500 ft | 107 kts | 11° |
| 2026-05-07 19:03 | 55.10387 | 49.88367 | 1499 ft | 107 kts | 11° |
| 2026-05-07 19:04 | 55.11130 | 49.88509 | 1497 ft | 107 kts | 11° |
| 2026-05-07 19:04 | 55.11879 | 49.88660 | 1494 ft | 108 kts | 11° |
| 2026-05-07 19:04 | 55.12632 | 49.88818 | 1492 ft | 109 kts | 11° |
| 2026-05-07 19:04 | 55.13385 | 49.88977 | 1492 ft | 110 kts | 11° |
| 2026-05-07 19:05 | 55.14147 | 49.89139 | 1495 ft | 110 kts | 11° |
| 2026-05-07 19:05 | 55.14911 | 49.89305 | 1494 ft | 111 kts | 11° |
| 2026-05-07 19:05 | 55.15677 | 49.89470 | 1494 ft | 111 kts | 11° |
| 2026-05-07 19:05 | 55.16432 | 49.89637 | 1491 ft | 110 kts | 11° |
| 2026-05-07 19:06 | 55.17198 | 49.89807 | 1498 ft | 111 kts | 11° |
| 2026-05-07 19:06 | 55.18730 | 49.90143 | 1496 ft | 111 kts | 11° |
| 2026-05-07 19:06 | 55.19497 | 49.90307 | 1494 ft | 111 kts | 11° |
| 2026-05-07 19:07 | 55.20232 | 49.90595 | 1495 ft | 110 kts | 19° |
| 2026-05-07 19:07 | 55.20971 | 49.90945 | 1495 ft | 110 kts | 19° |
| 2026-05-07 19:07 | 55.21709 | 49.91316 | 1494 ft | 110 kts | 22° |
| 2026-05-07 19:07 | 55.22433 | 49.91764 | 1495 ft | 110 kts | 23° |
| 2026-05-07 19:08 | 55.23158 | 49.92206 | 1494 ft | 110 kts | 23° |
| 2026-05-07 19:08 | 55.23864 | 49.92688 | 1495 ft | 110 kts | 26° |
| 2026-05-07 19:08 | 55.24579 | 49.93199 | 1498 ft | 110 kts | 26° |
| 2026-05-07 19:08 | 55.25289 | 49.93701 | 1492 ft | 110 kts | 26° |
| 2026-05-07 19:09 | 55.25997 | 49.94197 | 1501 ft | 110 kts | 26° |
| 2026-05-07 19:09 | 55.26701 | 49.94695 | 1498 ft | 111 kts | 26° |
| 2026-05-07 19:09 | 55.27420 | 49.95206 | 1501 ft | 111 kts | 26° |
| 2026-05-07 19:09 | 55.28132 | 49.95718 | 1498 ft | 110 kts | 26° |
| 2026-05-07 19:10 | 55.28840 | 49.96227 | 1499 ft | 111 kts | 26° |
| 2026-05-07 19:10 | 55.29558 | 49.96738 | 1498 ft | 111 kts | 26° |
| 2026-05-07 19:10 | 55.30272 | 49.97241 | 1493 ft | 110 kts | 26° |
| 2026-05-07 19:10 | 55.30970 | 49.97738 | 1494 ft | 110 kts | 26° |
| 2026-05-07 19:11 | 55.31680 | 49.98254 | 1500 ft | 111 kts | 26° |
| 2026-05-07 19:11 | 55.32398 | 49.98773 | 1499 ft | 111 kts | 26° |
| 2026-05-07 19:11 | 55.33113 | 49.99282 | 1493 ft | 111 kts | 26° |
| 2026-05-07 19:11 | 55.33828 | 49.99790 | 1493 ft | 110 kts | 26° |
| 2026-05-07 19:12 | 55.34529 | 50.00288 | 1493 ft | 110 kts | 26° |
| 2026-05-07 19:12 | 55.35241 | 50.00797 | 1498 ft | 110 kts | 26° |
| 2026-05-07 19:12 | 55.35939 | 50.01343 | 1492 ft | 108 kts | 40° |
| 2026-05-07 19:12 | 55.36221 | 50.02491 | 1505 ft | 104 kts | 82° |
| 2026-05-07 19:13 | 55.36360 | 50.03757 | 1498 ft | 105 kts | 81° |
| 2026-05-07 19:13 | 55.36490 | 50.05003 | 1497 ft | 105 kts | 81° |
| 2026-05-07 19:13 | 55.36624 | 50.06262 | 1497 ft | 103 kts | 81° |
| 2026-05-07 19:13 | 55.36750 | 50.07504 | 1498 ft | 104 kts | 81° |
| 2026-05-07 19:14 | 55.36881 | 50.08754 | 1497 ft | 104 kts | 81° |
| 2026-05-07 19:14 | 55.37013 | 50.09989 | 1496 ft | 104 kts | 81° |
| 2026-05-07 19:14 | 55.37148 | 50.11239 | 1496 ft | 104 kts | 82° |
| 2026-05-07 19:14 | 55.37285 | 50.12488 | 1495 ft | 103 kts | 82° |
| 2026-05-07 19:15 | 55.37421 | 50.13726 | 1497 ft | 103 kts | 81° |
| 2026-05-07 19:15 | 55.37556 | 50.14954 | 1496 ft | 104 kts | 81° |
| 2026-05-07 19:15 | 55.37690 | 50.16206 | 1497 ft | 103 kts | 81° |
| 2026-05-07 19:15 | 55.37825 | 50.17449 | 1493 ft | 103 kts | 81° |
| 2026-05-07 19:16 | 55.37959 | 50.18691 | 1494 ft | 103 kts | 81° |
| 2026-05-07 19:16 | 55.38091 | 50.19923 | 1493 ft | 103 kts | 81° |
| 2026-05-07 19:16 | 55.38225 | 50.21172 | 1493 ft | 104 kts | 81° |
| 2026-05-07 19:16 | 55.38360 | 50.22426 | 1490 ft | 104 kts | 81° |
| 2026-05-07 19:17 | 55.38494 | 50.23672 | 1492 ft | 104 kts | 81° |
| 2026-05-07 19:17 | 55.38627 | 50.24910 | 1494 ft | 104 kts | 81° |
| 2026-05-07 19:17 | 55.38762 | 50.26166 | 1491 ft | 105 kts | 81° |
| 2026-05-07 19:17 | 55.38898 | 50.27440 | 1497 ft | 106 kts | 81° |
| 2026-05-07 19:18 | 55.39032 | 50.28697 | 1499 ft | 106 kts | 81° |